Time;durP1;ratioP1;P1;durP2;ratioP2;P2;SDS_P1;SDS_P2;PMS_P1;PMS_P2;Temp;Humidity;BMP_temperature;BMP_pressure;BME280_temperature;BME280_humidity;BME280_pressure;Samples;Min_cycle;Max_cycle;Signal;HPM_P1;HPM_P2
2022/07/30 00:00:23;;;;;;;7.23;4.10;;;18.10;99.90;;;;;;4424461;28;657458;-63
2022/07/30 00:03:10;;;;;;;6.53;4.13;;;18.10;99.90;;;;;;4431494;28;656266;-63
2022/07/30 00:05:57;;;;;;;5.13;3.83;;;18.20;99.90;;;;;;4452597;28;656434;-63
2022/07/30 00:08:44;;;;;;;4.43;3.83;;;18.20;99.90;;;;;;4445149;28;657089;-64
2022/07/30 00:11:31;;;;;;;6.30;3.73;;;18.20;99.90;;;;;;4424151;28;656577;-63
2022/07/30 00:14:18;;;;;;;4.63;3.83;;;18.20;99.90;;;;;;4450960;28;657151;-63
2022/07/30 00:17:07;;;;;;;6.77;4.27;;;18.20;99.90;;;;;;4427179;28;657252;-63
2022/07/30 00:19:54;;;;;;;5.73;3.73;;;18.20;99.90;;;;;;4453402;28;655974;-63
2022/07/30 00:22:41;;;;;;;9.37;4.07;;;18.20;99.90;;;;;;4424973;28;656986;-63
2022/07/30 00:25:28;;;;;;;8.57;3.97;;;18.20;99.90;;;;;;4447782;28;657599;-63
2022/07/30 00:28:15;;;;;;;4.57;3.43;;;18.30;99.90;;;;;;4429294;28;656381;-63
2022/07/30 00:31:02;;;;;;;7.80;3.90;;;18.30;99.90;;;;;;4446185;28;657498;-64
2022/07/30 00:33:51;;;;;;;5.00;3.80;;;18.30;99.90;;;;;;4446375;28;656816;-63
2022/07/30 00:36:38;;;;;;;6.83;3.60;;;18.20;99.90;;;;;;4427755;28;657387;-63
2022/07/30 00:39:28;;;;;;;5.23;3.60;;;18.20;99.90;;;;;;4406735;28;656564;-64
2022/07/30 00:42:16;;;;;;;7.40;3.77;;;18.20;99.90;;;;;;4419055;28;656954;-63
2022/07/30 00:45:04;;;;;;;5.57;3.40;;;18.30;99.90;;;;;;4450373;28;657407;-63
2022/07/30 00:47:51;;;;;;;6.45;3.72;;;18.30;99.90;;;;;;4411447;28;656353;-63
2022/07/30 00:50:39;;;;;;;7.13;4.00;;;18.30;99.90;;;;;;4451183;28;657064;-63
2022/07/30 00:53:26;;;;;;;9.50;4.00;;;18.30;99.90;;;;;;4423328;28;656523;-63
2022/07/30 00:56:13;;;;;;;6.23;3.80;;;18.30;99.90;;;;;;4432416;28;656607;-63
2022/07/30 00:59:01;;;;;;;6.10;3.80;;;18.30;99.90;;;;;;4408106;28;656500;-63
2022/07/30 01:01:48;;;;;;;6.53;4.30;;;18.20;99.90;;;;;;4444735;28;656964;-63
2022/07/30 01:04:35;;;;;;;5.53;4.07;;;18.20;99.90;;;;;;4407737;28;656921;-64
2022/07/30 01:07:24;;;;;;;7.60;3.93;;;18.20;99.90;;;;;;4448988;28;656187;-63
2022/07/30 01:10:12;;;;;;;5.43;4.07;;;18.10;99.90;;;;;;4416019;28;656548;-63
2022/07/30 01:13:00;;;;;;;5.90;3.90;;;18.20;99.90;;;;;;4444334;28;656296;-63
2022/07/30 01:15:47;;;;;;;4.77;3.90;;;18.20;99.90;;;;;;4415364;28;657572;-63
2022/07/30 01:21:38;;;;;;;9.03;4.07;;;18.20;99.90;;;;;;4395821;28;657350;-63
2022/07/30 01:24:29;;;;;;;6.63;4.30;;;18.20;99.90;;;;;;4432398;28;658663;-63
2022/07/30 01:27:17;;;;;;;6.80;4.23;;;18.10;99.90;;;;;;4430792;28;656973;-63
2022/07/30 01:30:05;;;;;;;8.17;4.57;;;18.20;99.90;;;;;;4445266;28;656513;-63
2022/07/30 01:32:53;;;;;;;8.02;4.05;;;18.20;99.90;;;;;;4419428;28;656781;-63
2022/07/30 01:35:40;;;;;;;8.07;4.60;;;18.10;99.90;;;;;;4411550;28;656431;-64
2022/07/30 01:38:27;;;;;;;5.95;4.30;;;18.10;99.90;;;;;;4444628;28;657364;-63
2022/07/30 01:41:15;;;;;;;8.57;4.30;;;18.10;99.90;;;;;;4445095;28;656629;-63
2022/07/30 01:44:03;;;;;;;10.00;4.70;;;18.10;99.90;;;;;;4408213;28;657760;-63
2022/07/30 01:46:50;;;;;;;8.90;4.20;;;18.10;99.90;;;;;;4406994;28;657776;-64
2022/07/30 01:49:37;;;;;;;6.30;4.70;;;18.10;99.90;;;;;;4438387;28;658119;-63
2022/07/30 01:52:21;;;;;;;6.60;4.60;;;18.20;99.90;;;;;;4896967;28;172296;-64
2022/07/30 01:55:09;;;;;;;5.17;4.33;;;18.20;99.90;;;;;;4393403;28;649990;-64
2022/07/30 01:57:56;;;;;;;6.30;4.37;;;18.10;99.90;;;;;;4375447;28;650482;-63
2022/07/30 02:00:43;;;;;;;7.67;4.17;;;18.20;99.90;;;;;;4415290;28;650964;-63
2022/07/30 02:03:30;;;;;;;8.27;4.60;;;18.10;99.90;;;;;;4392884;28;650447;-64
2022/07/30 02:06:20;;;;;;;6.67;4.43;;;18.10;99.90;;;;;;4411414;28;650067;-64
2022/07/30 02:09:08;;;;;;;7.17;4.93;;;18.10;99.90;;;;;;4393166;28;652428;-64
2022/07/30 02:15:07;;;;;;;5.37;4.40;;;18.10;99.90;;;;;;4381217;28;651788;-64
2022/07/30 02:17:56;;;;;;;6.70;4.57;;;18.10;99.90;;;;;;4380792;28;651861;-63
2022/07/30 02:20:45;;;;;;;6.30;4.50;;;18.00;99.90;;;;;;4386186;28;652510;-64
2022/07/30 02:23:34;;;;;;;7.07;4.50;;;18.00;99.90;;;;;;4379696;28;652759;-63
2022/07/30 02:26:23;;;;;;;8.40;4.67;;;18.10;99.90;;;;;;4388354;28;652840;-64
2022/07/30 02:29:10;;;;;;;7.10;4.67;;;18.10;99.90;;;;;;4386321;28;652645;-64
2022/07/30 02:31:57;;;;;;;11.47;4.53;;;18.00;99.90;;;;;;4409675;28;652643;-64
2022/07/30 02:34:46;;;;;;;6.10;4.40;;;17.90;99.90;;;;;;4397835;28;653784;-65
2022/07/30 02:37:33;;;;;;;7.07;4.17;;;17.90;99.90;;;;;;4383725;28;652521;-63
2022/07/30 02:40:20;;;;;;;10.30;4.93;;;17.80;99.90;;;;;;4374584;28;652812;-64
2022/07/30 02:43:09;;;;;;;10.70;4.57;;;17.70;99.90;;;;;;4392481;28;653505;-64
2022/07/30 02:45:56;;;;;;;6.07;4.40;;;17.80;99.90;;;;;;4368898;28;653598;-64
2022/07/30 02:48:43;;;;;;;7.80;4.60;;;17.70;99.90;;;;;;4394149;28;651780;-63
2022/07/30 02:51:30;;;;;;;8.40;4.50;;;17.80;99.90;;;;;;4369582;28;652609;-65
2022/07/30 02:54:19;;;;;;;5.97;4.17;;;17.60;99.90;;;;;;4392993;28;653043;-64
2022/07/30 02:57:06;;;;;;;7.47;4.77;;;17.60;99.90;;;;;;4372205;28;654799;-65
2022/07/30 02:59:54;;;;;;;10.50;4.70;;;17.50;99.90;;;;;;4387739;28;653483;-64
2022/07/30 03:02:42;;;;;;;6.50;4.53;;;17.50;99.90;;;;;;4357902;28;654014;-64
2022/07/30 03:05:29;;;;;;;7.97;4.90;;;17.40;99.90;;;;;;4375251;28;652882;-65
2022/07/30 03:08:16;;;;;;;7.83;4.37;;;17.40;99.90;;;;;;4348935;28;652359;-64
2022/07/30 03:11:03;;;;;;;7.13;4.70;;;17.30;99.90;;;;;;4372434;28;652747;-65
2022/07/30 03:13:50;;;;;;;10.27;5.10;;;17.30;99.90;;;;;;4351724;28;652484;-65
2022/07/30 03:16:40;;;;;;;7.60;4.97;;;17.40;99.90;;;;;;4376231;28;652742;-64
2022/07/30 03:19:29;;;;;;;7.17;4.80;;;17.50;99.90;;;;;;4352833;28;653117;-64
2022/07/30 03:22:17;;;;;;;6.37;4.57;;;17.60;99.90;;;;;;4360216;28;652786;-65
2022/07/30 03:25:05;;;;;;;9.43;5.10;;;17.60;99.90;;;;;;4380233;28;652296;-64
2022/07/30 03:27:52;;;;;;;7.83;5.70;;;17.60;99.90;;;;;;4344841;28;653528;-65
2022/07/30 03:30:39;;;;;;;6.00;4.70;;;17.60;99.90;;;;;;4372888;28;652626;-65
2022/07/30 03:33:28;;;;;;;10.23;4.70;;;17.60;99.90;;;;;;4352172;28;652923;-64
2022/07/30 03:36:15;;;;;;;10.50;4.97;;;17.60;99.90;;;;;;4357712;28;653822;-65
2022/07/30 03:39:03;;;;;;;8.43;5.07;;;17.60;99.90;;;;;;4365742;28;654834;-64
2022/07/30 03:41:50;;;;;;;5.37;4.73;;;17.70;99.90;;;;;;4365525;28;652400;-65
2022/07/30 03:44:37;;;;;;;7.30;5.00;;;17.70;99.90;;;;;;4365365;28;651768;-64
2022/07/30 03:47:24;;;;;;;6.97;5.30;;;17.80;96.80;;;;;;4375420;28;652379;-64
2022/07/30 03:50:13;;;;;;;8.07;5.50;;;17.70;92.70;;;;;;4354022;28;652814;-65
2022/07/30 03:53:01;;;;;;;9.07;5.27;;;17.70;94.70;;;;;;4356328;28;652527;-65
2022/07/30 03:55:48;;;;;;;8.50;5.70;;;17.70;80.60;;;;;;4372718;28;653129;-64
2022/07/30 03:58:36;;;;;;;6.00;4.80;;;17.80;57.70;;;;;;4364288;28;652511;-65
2022/07/30 04:01:25;;;;;;;8.77;5.40;;;17.80;1.00;;;;;;4375926;28;652982;-65
2022/07/30 04:04:12;;;;;;;9.50;5.83;;;17.90;1.00;;;;;;4355387;28;653061;-64
2022/07/30 04:07:00;;;;;;;7.13;5.40;;;17.90;1.00;;;;;;4370351;28;651678;-64
2022/07/30 04:09:47;;;;;;;10.77;5.47;;;18.00;1.00;;;;;;4355468;28;652121;-65
2022/07/30 04:12:35;;;;;;;7.53;5.07;;;18.00;99.90;;;;;;4367316;28;652609;-65
2022/07/30 04:15:22;;;;;;;7.47;5.30;;;18.00;99.90;;;;;;4367372;28;652929;-65
2022/07/30 04:18:10;;;;;;;9.03;5.87;;;18.10;99.90;;;;;;4371147;28;652280;-65
2022/07/30 04:20:57;;;;;;;6.70;5.50;;;18.10;36.00;;;;;;4376531;28;652321;-64
2022/07/30 04:23:46;;;;;;;9.87;5.43;;;18.10;90.90;;;;;;4374639;28;652353;-65
2022/07/30 04:26:34;;;;;;;6.03;4.80;;;18.10;99.90;;;;;;4351637;28;653807;-64
2022/07/30 04:29:21;;;;;;;9.07;5.03;;;18.20;99.90;;;;;;4353553;28;652811;-64
2022/07/30 04:32:09;;;;;;;9.20;4.93;;;18.20;99.90;;;;;;4369474;28;654946;-64
2022/07/30 04:34:56;;;;;;;8.57;5.10;;;18.30;1.00;;;;;;4355435;28;652274;-65
2022/07/30 04:37:43;;;;;;;9.37;5.70;;;18.20;1.00;;;;;;4375242;28;652350;-64
2022/07/30 04:40:31;;;;;;;6.87;5.13;;;18.30;1.00;;;;;;4348773;28;652684;-65
2022/07/30 04:43:19;;;;;;;6.73;5.00;;;18.40;99.90;;;;;;4366427;28;652587;-65
2022/07/30 04:46:06;;;;;;;7.63;5.37;;;18.40;13.80;;;;;;4354400;28;653514;-64
2022/07/30 04:48:53;;;;;;;7.20;5.37;;;18.60;1.00;;;;;;4371826;28;653677;-65
2022/07/30 04:51:40;;;;;;;7.23;4.90;;;18.60;99.90;;;;;;4345737;28;653342;-65
2022/07/30 04:54:27;;;;;;;6.13;5.40;;;18.70;99.90;;;;;;4377004;28;653765;-65
2022/07/30 04:57:16;;;;;;;6.17;4.80;;;18.90;1.00;;;;;;4375715;28;653810;-65
2022/07/30 05:00:04;;;;;;;8.77;5.80;;;19.00;1.00;;;;;;4352184;28;653170;-65
2022/07/30 05:02:51;;;;;;;8.27;5.37;;;19.00;1.00;;;;;;4356659;28;652487;-65
2022/07/30 05:05:38;;;;;;;7.93;5.13;;;19.00;1.00;;;;;;4367571;28;653555;-65
2022/07/30 05:08:25;;;;;;;8.80;5.60;;;19.10;1.00;;;;;;4348625;28;652441;-65
2022/07/30 05:11:13;;;;;;;12.30;5.80;;;19.20;1.00;;;;;;4376789;28;653619;-64
2022/07/30 05:14:01;;;;;;;10.00;6.03;;;19.30;1.00;;;;;;4365062;28;653544;-65
2022/07/30 05:16:49;;;;;;;8.17;5.57;;;19.30;1.00;;;;;;4374071;28;653839;-65
2022/07/30 05:19:36;;;;;;;9.63;6.03;;;19.40;1.00;;;;;;4353909;28;652418;-65
2022/07/30 05:22:24;;;;;;;10.03;6.30;;;19.50;1.00;;;;;;4378816;28;652610;-65
2022/07/30 05:25:11;;;;;;;11.47;6.90;;;19.60;1.00;;;;;;4356655;28;653859;-65
2022/07/30 05:27:58;;;;;;;10.73;7.23;;;19.70;1.00;;;;;;4373152;28;654685;-64
2022/07/30 05:30:47;;;;;;;10.70;7.50;;;19.70;1.00;;;;;;4352657;28;653667;-65
2022/07/30 05:33:34;;;;;;;13.13;8.10;;;19.80;1.00;;;;;;4373024;28;652789;-65
2022/07/30 05:36:21;;;;;;;13.20;8.03;;;19.80;1.00;;;;;;4353084;28;653758;-65
2022/07/30 05:39:08;;;;;;;9.93;7.23;;;19.60;1.00;;;;;;4375569;28;653664;-64
2022/07/30 05:41:55;;;;;;;12.17;7.70;;;19.50;1.00;;;;;;4356438;28;652572;-65
2022/07/30 05:44:42;;;;;;;11.10;7.53;;;19.30;1.00;;;;;;4381067;28;652515;-64
2022/07/30 05:47:31;;;;;;;9.93;7.20;;;19.40;1.00;;;;;;4372481;28;653581;-65
2022/07/30 05:50:18;;;;;;;10.27;6.63;;;19.40;1.00;;;;;;4353152;28;653320;-65
2022/07/30 05:53:05;;;;;;;13.47;7.03;;;19.60;1.00;;;;;;4357659;28;653525;-65
2022/07/30 05:55:52;;;;;;;10.10;6.47;;;19.70;1.00;;;;;;4376588;28;653441;-65
2022/07/30 05:58:39;;;;;;;13.60;6.27;;;19.70;1.00;;;;;;4374858;28;653213;-65
2022/07/30 06:01:26;;;;;;;9.87;6.67;;;19.80;1.00;;;;;;4353448;28;653400;-65
2022/07/30 06:04:15;;;;;;;11.30;6.77;;;19.90;1.00;;;;;;4368166;28;653180;-65
2022/07/30 06:07:02;;;;;;;14.73;9.40;;;19.90;1.00;;;;;;4354165;28;654568;-65
2022/07/30 06:09:49;;;;;;;17.33;11.60;;;20.00;1.00;;;;;;4374420;28;653873;-66
2022/07/30 06:12:36;;;;;;;17.67;13.53;;;20.00;1.00;;;;;;4352843;28;654469;-65
2022/07/30 06:15:23;;;;;;;17.77;13.40;;;20.10;1.00;;;;;;4375850;28;653821;-65
2022/07/30 06:18:10;;;;;;;23.07;13.90;;;20.10;1.00;;;;;;4354429;28;654437;-65
2022/07/30 06:20:59;;;;;;;24.53;16.23;;;19.90;1.00;;;;;;4371077;28;655285;-65
2022/07/30 06:23:46;;;;;;;21.77;15.83;;;19.80;1.00;;;;;;4352108;28;654811;-65
2022/07/30 06:26:33;;;;;;;21.67;14.53;;;19.80;1.00;;;;;;4366764;28;655301;-64
2022/07/30 06:29:20;;;;;;;21.93;14.50;;;19.80;1.00;;;;;;4353046;28;654367;-65
2022/07/30 06:32:07;;;;;;;17.87;14.43;;;19.70;1.00;;;;;;4372925;28;655004;-64
2022/07/30 06:34:54;;;;;;;19.43;12.40;;;19.80;1.00;;;;;;4370857;28;656163;-65
2022/07/30 06:37:43;;;;;;;16.77;12.47;;;19.60;1.00;;;;;;4348775;28;656349;-65
2022/07/30 06:40:30;;;;;;;18.48;11.45;;;19.70;1.00;;;;;;4357526;28;655608;-65
2022/07/30 06:43:19;;;;;;;15.63;11.10;;;19.80;1.00;;;;;;4374910;28;655977;-64
2022/07/30 06:46:06;;;;;;;16.97;10.10;;;19.80;1.00;;;;;;4352079;28;655240;-65
2022/07/30 06:48:53;;;;;;;16.80;9.60;;;19.70;1.00;;;;;;4376803;28;655501;-65
2022/07/30 06:51:40;;;;;;;12.23;9.50;;;19.80;1.00;;;;;;4360631;28;655213;-65
2022/07/30 06:54:29;;;;;;;11.17;8.87;;;19.80;1.00;;;;;;4377244;28;654045;-65
2022/07/30 06:57:16;;;;;;;14.80;9.57;;;19.90;1.00;;;;;;4357883;28;654545;-65
2022/07/30 07:00:04;;;;;;;14.47;9.30;;;19.80;1.00;;;;;;4379397;28;656232;-65
2022/07/30 07:02:52;;;;;;;17.43;10.83;;;19.80;1.00;;;;;;4355565;28;654361;-65
2022/07/30 07:05:39;;;;;;;17.00;12.33;;;19.80;1.00;;;;;;4372941;28;656015;-65
2022/07/30 07:08:26;;;;;;;17.57;12.80;;;19.80;1.00;;;;;;4353533;28;655403;-66
2022/07/30 07:11:15;;;;;;;18.90;12.97;;;19.80;1.00;;;;;;4372778;28;656529;-66
2022/07/30 07:14:02;;;;;;;19.37;14.33;;;19.80;1.00;;;;;;4351605;28;656704;-65
2022/07/30 07:16:49;;;;;;;20.27;15.13;;;19.80;1.00;;;;;;4371796;28;655524;-66
2022/07/30 07:19:36;;;;;;;22.30;16.23;;;19.70;19.80;;;;;;4355820;28;655686;-65
2022/07/30 07:22:23;;;;;;;28.13;17.80;;;19.60;99.90;;;;;;4371218;28;658044;-66
2022/07/30 07:25:10;;;;;;;28.17;16.70;;;19.50;1.00;;;;;;4346388;28;656808;-66
2022/07/30 07:27:59;;;;;;;25.77;16.83;;;19.60;99.90;;;;;;4371123;28;656792;-66
2022/07/30 07:30:46;;;;;;;25.40;16.67;;;19.60;99.90;;;;;;4352686;28;657131;-66
2022/07/30 07:33:33;;;;;;;20.70;15.97;;;19.80;99.90;;;;;;4368654;28;656961;-65
2022/07/30 07:36:20;;;;;;;23.47;16.67;;;20.00;77.20;;;;;;4354028;28;656871;-66
2022/07/30 07:39:08;;;;;;;22.17;15.97;;;20.20;1.00;;;;;;4367820;28;657917;-67
2022/07/30 07:41:55;;;;;;;25.47;17.63;;;20.20;1.00;;;;;;4353186;28;655708;-66
2022/07/30 07:44:44;;;;;;;29.33;17.40;;;20.30;1.00;;;;;;4374358;28;656202;-66
2022/07/30 07:47:31;;;;;;;25.13;16.67;;;20.50;1.00;;;;;;4350250;28;655411;-65
2022/07/30 07:50:18;;;;;;;21.53;16.63;;;20.50;1.00;;;;;;4375388;28;655232;-66
2022/07/30 07:53:06;;;;;;;23.53;14.70;;;20.50;1.00;;;;;;4344095;28;655620;-65
2022/07/30 07:55:53;;;;;;;21.73;15.83;;;20.60;1.00;;;;;;4370368;28;657075;-65
2022/07/30 07:58:40;;;;;;;21.50;14.60;;;20.70;1.00;;;;;;4359879;28;655977;-66
2022/07/30 08:01:29;;;;;;;16.70;12.87;;;20.80;1.00;;;;;;4380931;28;656529;-66
2022/07/30 08:04:16;;;;;;;17.63;12.30;;;20.90;1.00;;;;;;4352089;28;655546;-66
2022/07/30 08:07:03;;;;;;;16.93;10.90;;;21.20;1.00;;;;;;4375620;28;656613;-65
2022/07/30 08:09:50;;;;;;;13.17;10.13;;;21.20;1.00;;;;;;4359103;28;655754;-66
2022/07/30 08:12:37;;;;;;;16.97;9.17;;;21.30;1.00;;;;;;4373840;28;655333;-66
2022/07/30 08:15:24;;;;;;;13.77;9.13;;;21.40;1.00;;;;;;4370123;28;654717;-65
2022/07/30 08:18:13;;;;;;;13.73;9.80;;;21.40;1.00;;;;;;4355341;28;655374;-66
2022/07/30 08:21:00;;;;;;;11.27;8.20;;;21.60;1.00;;;;;;4358259;28;654371;-66
2022/07/30 08:23:47;;;;;;;9.33;7.37;;;21.80;1.00;;;;;;4373938;28;655056;-67
2022/07/30 08:26:34;;;;;;;9.93;7.50;;;22.10;1.00;;;;;;4373727;28;653882;-66
2022/07/30 08:29:21;;;;;;;8.63;6.80;;;22.30;1.00;;;;;;4351495;28;653178;-66
2022/07/30 08:32:08;;;;;;;11.07;7.20;;;22.40;1.00;;;;;;4364991;28;654368;-66
2022/07/30 08:35:03;;;;;;;11.83;6.90;;;22.60;1.00;;;;;;4387331;28;656401;-63
2022/07/30 08:37:51;;;;;;;11.03;7.03;;;22.70;1.00;;;;;;4324712;28;655356;-67
2022/07/30 08:40:38;;;;;;;9.93;6.60;;;22.70;1.00;;;;;;4364043;28;655502;-66
2022/07/30 08:43:25;;;;;;;10.57;7.20;;;22.80;1.00;;;;;;4358456;28;653541;-68
2022/07/30 08:46:12;;;;;;;11.23;7.00;;;23.00;1.00;;;;;;4376496;28;654744;-66
2022/07/30 08:49:00;;;;;;;11.33;7.40;;;22.80;1.00;;;;;;4352905;28;654598;-68
2022/07/30 08:51:49;;;;;;;10.03;7.27;;;22.90;1.00;;;;;;4357659;28;654363;-68
2022/07/30 08:54:36;;;;;;;11.77;7.47;;;23.00;1.00;;;;;;4333228;28;654444;-67
2022/07/30 08:57:23;;;;;;;12.47;6.90;;;23.20;1.00;;;;;;4365844;28;655667;-66
2022/07/30 09:00:13;;;;;;;9.60;6.40;;;23.30;99.90;;;;;;4345321;28;655360;-67
2022/07/30 09:03:01;;;;;;;8.83;6.40;;;23.40;1.00;;;;;;4358944;28;656100;-67
2022/07/30 09:05:48;;;;;;;9.13;6.40;;;23.20;99.90;;;;;;4372622;28;653541;-68
2022/07/30 09:08:36;;;;;;;7.67;5.80;;;23.60;99.90;;;;;;4352081;28;654316;-67
2022/07/30 09:11:24;;;;;;;10.23;7.00;;;24.00;99.90;;;;;;4370449;28;655463;-66
2022/07/30 09:14:12;;;;;;;11.60;6.87;;;24.30;99.90;;;;;;4348268;28;656213;-67
2022/07/30 09:16:59;;;;;;;8.03;5.70;;;24.60;99.90;;;;;;4365955;28;655489;-66
2022/07/30 09:20:01;;;;;;;12.00;6.00;;;24.70;99.90;;;;;;4352888;28;655809;-66
2022/07/30 09:22:49;;;;;;;9.23;5.70;;;24.80;99.90;;;;;;4341619;28;655560;-68
2022/07/30 09:25:39;;;;;;;9.98;5.53;;;24.60;99.90;;;;;;4344517;28;654596;-66
2022/07/30 09:28:30;;;;;;;8.90;5.60;;;24.80;99.90;;;;;;4344753;28;654853;-66
2022/07/30 09:31:17;;;;;;;8.07;4.70;;;25.20;99.90;;;;;;4342985;28;655205;-68
2022/07/30 09:34:04;;;;;;;5.88;5.05;;;25.80;99.90;;;;;;4365904;28;655324;-66
2022/07/30 09:36:52;;;;;;;9.30;4.93;;;25.80;99.90;;;;;;4346230;28;654424;-66
2022/07/30 09:39:39;;;;;;;6.30;4.50;;;26.20;99.90;;;;;;4367877;28;654584;-66
2022/07/30 09:42:30;;;;;;;8.00;4.53;;;26.30;99.90;;;;;;4401687;28;655177;-67
2022/07/30 09:45:17;;;;;;;6.28;4.30;;;26.50;99.90;;;;;;4352668;28;655069;-66
2022/07/30 09:48:06;;;;;;;5.80;3.90;;;26.40;99.90;;;;;;4374789;28;654549;-67
2022/07/30 09:50:54;;;;;;;4.88;4.15;;;26.20;99.90;;;;;;4374045;28;654887;-66
2022/07/30 09:53:53;;;;;;;6.68;4.28;;;25.90;99.90;;;;;;4353077;28;654514;-66
2022/07/30 09:56:42;;;;;;;10.98;4.95;;;25.90;99.90;;;;;;4325132;28;655583;-66
2022/07/30 09:59:33;;;;;;;7.38;4.38;;;26.00;99.90;;;;;;4366137;28;656149;-66
2022/07/30 10:02:20;;;;;;;7.43;4.85;;;25.80;99.90;;;;;;4300273;28;654901;-68
2022/07/30 10:05:09;;;;;;;11.10;5.25;;;25.90;99.90;;;;;;4370115;28;655683;-66
2022/07/30 10:07:57;;;;;;;5.18;4.43;;;26.10;99.90;;;;;;4353859;28;655749;-67
2022/07/30 10:10:44;;;;;;;6.72;4.50;;;26.10;99.90;;;;;;4372701;28;654426;-66
2022/07/30 10:13:32;;;;;;;10.02;5.07;;;26.20;99.90;;;;;;4365291;28;655604;-66
2022/07/30 10:16:20;;;;;;;7.97;4.65;;;26.60;99.90;;;;;;4373746;28;655174;-67
2022/07/30 10:19:07;;;;;;;6.18;4.07;;;26.60;99.90;;;;;;4360986;28;655456;-66
2022/07/30 10:21:56;;;;;;;6.63;4.25;;;27.30;99.90;;;;;;4376426;28;654738;-66
2022/07/30 10:24:43;;;;;;;4.97;3.78;;;27.90;99.90;;;;;;4354031;28;655118;-67
2022/07/30 10:27:31;;;;;;;6.05;4.72;;;28.20;99.90;;;;;;4359977;28;654375;-68
2022/07/30 10:30:18;;;;;;;11.48;4.18;;;29.20;99.90;;;;;;4381145;28;654404;-67
2022/07/30 10:33:06;;;;;;;5.13;3.63;;;29.00;99.90;;;;;;4360049;28;655491;-69
2022/07/30 10:35:54;;;;;;;5.40;3.50;;;29.10;99.90;;;;;;4379881;28;654401;-67
2022/07/30 10:38:41;;;;;;;13.35;4.15;;;28.30;99.90;;;;;;4360430;28;655070;-67
2022/07/30 10:41:34;;;;;;;43.40;11.43;;;28.50;99.90;;;;;;4377320;28;656761;-67
2022/07/30 10:44:55;;;;;;;11.20;4.57;;;27.60;99.90;;;;;;4327126;28;657009;-67
2022/07/30 10:47:42;;;;;;;6.55;3.78;;;28.20;99.90;;;;;;4352346;28;655580;-68
2022/07/30 10:50:31;;;;;;;4.20;3.33;;;28.40;99.90;;;;;;4378932;28;654713;-66
2022/07/30 10:53:36;;;;;;;4.25;3.50;;;28.60;99.90;;;;;;4354356;28;654575;-67
2022/07/30 10:56:24;;;;;;;5.05;3.58;;;28.10;99.90;;;;;;4355045;28;654754;-66
2022/07/30 10:59:11;;;;;;;7.55;3.80;;;28.30;99.90;;;;;;4357309;28;655177;-67
2022/07/30 11:02:08;;;;;;;4.95;3.60;;;28.30;99.90;;;;;;4379135;28;655670;-67
2022/07/30 11:05:23;;;;;;;5.07;3.63;;;28.30;99.90;;;;;;4337211;28;654677;-67
2022/07/30 11:08:34;;;;;;;4.93;3.58;;;28.40;99.90;;;;;;4337986;28;654364;-68
2022/07/30 11:11:50;;;;;;;4.78;3.42;;;28.30;99.90;;;;;;4361587;28;654631;-67
2022/07/30 11:14:58;;;;;;;5.28;3.85;;;27.90;99.90;;;;;;4336106;28;654774;-68
2022/07/30 11:17:58;;;;;;;5.25;3.72;;;26.80;99.90;;;;;;4342069;28;654597;-67
2022/07/30 11:21:15;;;;;;;4.00;3.42;;;26.70;99.90;;;;;;4332534;28;654714;-66
2022/07/30 11:24:04;;;;;;;5.70;3.42;;;25.90;99.90;;;;;;4333297;28;654833;-67
2022/07/30 11:26:52;;;;;;;8.18;4.03;;;25.50;99.90;;;;;;4356246;28;654302;-66
2022/07/30 11:29:40;;;;;;;4.75;4.07;;;25.20;99.90;;;;;;4377403;28;653980;-66
2022/07/30 11:32:29;;;;;;;6.78;3.92;;;24.70;99.90;;;;;;4359659;28;654791;-66
2022/07/30 11:35:18;;;;;;;8.50;4.30;;;24.60;99.90;;;;;;4358178;28;654806;-66
2022/07/30 11:38:06;;;;;;;6.50;4.40;;;24.30;99.90;;;;;;4367011;28;654412;-68
2022/07/30 11:41:10;;;;;;;4.55;3.88;;;24.10;99.90;;;;;;4377437;28;654360;-67
2022/07/30 11:44:25;;;;;;;5.40;4.25;;;23.90;99.90;;;;;;4333611;28;656075;-66
2022/07/30 11:47:12;;;;;;;5.65;4.50;;;23.80;99.90;;;;;;4331038;28;655090;-66
2022/07/30 11:49:59;;;;;;;8.73;5.20;;;23.60;99.90;;;;;;4377997;28;654723;-66
2022/07/30 11:52:49;;;;;;;7.53;4.70;;;23.60;99.90;;;;;;4358059;28;654545;-66
2022/07/30 11:55:38;;;;;;;6.47;4.85;;;23.40;99.90;;;;;;4357579;28;654607;-66
2022/07/30 11:58:30;;;;;;;6.93;4.90;;;23.50;99.90;;;;;;4355354;28;654970;-66
2022/07/30 12:01:18;;;;;;;7.30;4.85;;;23.20;99.90;;;;;;4357299;28;655395;-66
2022/07/30 12:04:07;;;;;;;6.68;4.53;;;22.90;99.90;;;;;;4365910;28;654215;-68
2022/07/30 12:06:54;;;;;;;7.63;4.88;;;22.60;99.90;;;;;;4376604;28;656357;-66
2022/07/30 12:09:41;;;;;;;6.30;4.72;;;22.40;99.90;;;;;;4356499;28;654918;-66
2022/07/30 12:12:29;;;;;;;5.68;4.85;;;22.30;99.90;;;;;;4373507;28;655002;-66
2022/07/30 12:15:30;;;;;;;7.20;5.60;;;22.40;99.90;;;;;;4353972;28;654691;-66
2022/07/30 12:18:24;;;;;;;9.10;6.70;;;22.10;99.90;;;;;;4330632;28;655214;-65
2022/07/30 12:21:12;;;;;;;12.70;8.60;;;21.40;1.00;;;;;;4319185;28;654540;-65
2022/07/30 12:24:00;;;;;;;14.10;9.50;;;20.80;1.00;;;;;;4372374;28;654887;-66
2022/07/30 12:26:47;;;;;;;12.43;9.70;;;20.40;99.90;;;;;;4340346;28;656057;-66
2022/07/30 12:29:34;;;;;;;15.13;10.97;;;20.30;1.00;;;;;;4363463;28;656218;-67
2022/07/30 12:32:23;;;;;;;17.67;12.00;;;20.10;1.00;;;;;;4350919;28;655506;-67
2022/07/30 12:35:10;;;;;;;15.03;11.07;;;19.90;99.90;;;;;;4361490;28;655670;-68
2022/07/30 12:38:04;;;;;;;16.53;12.77;;;19.90;99.90;;;;;;4371378;28;657223;-66
2022/07/30 12:40:56;;;;;;;17.43;13.50;;;19.80;99.90;;;;;;4324378;28;657036;-66
2022/07/30 12:43:44;;;;;;;18.80;14.57;;;19.70;99.90;;;;;;4343247;28;656816;-65
2022/07/30 12:46:37;;;;;;;22.40;16.00;;;19.50;99.90;;;;;;4352199;28;657619;-68
2022/07/30 12:49:30;;;;;;;20.20;15.83;;;19.50;99.90;;;;;;4371108;28;656641;-66
2022/07/30 12:52:21;;;;;;;22.07;16.47;;;19.60;99.90;;;;;;4351021;28;656958;-66
2022/07/30 12:55:10;;;;;;;24.80;17.90;;;19.40;99.90;;;;;;4348456;28;657082;-65
2022/07/30 12:57:59;;;;;;;24.60;17.70;;;19.20;99.90;;;;;;4340471;28;657178;-66
2022/07/30 13:00:49;;;;;;;25.20;18.77;;;19.10;99.90;;;;;;4346141;28;656692;-65
2022/07/30 13:03:39;;;;;;;28.00;19.20;;;19.30;99.90;;;;;;4359334;28;657846;-66
2022/07/30 13:06:28;;;;;;;29.90;19.50;;;19.20;99.90;;;;;;4346588;28;657168;-65
2022/07/30 13:09:19;;;;;;;25.77;20.13;;;19.20;99.90;;;;;;4350904;28;657161;-65
2022/07/30 13:12:08;;;;;;;27.07;20.60;;;19.20;99.90;;;;;;4350474;28;658598;-66
2022/07/30 13:14:56;;;;;;;32.57;20.33;;;19.30;99.90;;;;;;4353320;28;658082;-66
2022/07/30 13:17:43;;;;;;;29.60;22.77;;;19.40;99.90;;;;;;4373686;28;657925;-66
2022/07/30 13:20:30;;;;;;;28.67;21.63;;;19.30;99.90;;;;;;4367240;28;656474;-67
2022/07/30 13:23:18;;;;;;;32.43;22.90;;;19.30;99.90;;;;;;4377283;28;656581;-65
2022/07/30 13:26:07;;;;;;;32.30;21.40;;;19.30;99.90;;;;;;4356045;28;656898;-64
2022/07/30 13:28:54;;;;;;;35.80;24.33;;;19.30;99.90;;;;;;4372724;28;656164;-64
2022/07/30 13:31:41;;;;;;;31.27;22.37;;;19.10;99.90;;;;;;4353599;28;656517;-65
2022/07/30 13:34:28;;;;;;;30.60;21.83;;;19.00;99.90;;;;;;4373967;28;657818;-64
2022/07/30 13:37:15;;;;;;;30.30;23.08;;;19.00;99.90;;;;;;4350815;28;657059;-65
2022/07/30 13:40:04;;;;;;;32.47;24.13;;;19.00;99.90;;;;;;4361852;28;657510;-65
2022/07/30 13:42:51;;;;;;;36.20;24.80;;;18.80;99.90;;;;;;4347928;28;656392;-65
2022/07/30 13:45:38;;;;;;;43.33;26.30;;;18.90;99.90;;;;;;4371170;28;657426;-65
2022/07/30 13:48:25;;;;;;;31.77;23.67;;;19.00;99.90;;;;;;4346983;28;656979;-65
2022/07/30 13:51:13;;;;;;;32.80;23.87;;;19.00;99.90;;;;;;4368591;28;657472;-66
2022/07/30 13:54:00;;;;;;;37.57;24.27;;;18.90;99.90;;;;;;4365112;28;658103;-67
2022/07/30 13:56:48;;;;;;;34.33;24.40;;;19.10;99.90;;;;;;4377032;28;657838;-67
2022/07/30 13:59:36;;;;;;;33.87;22.77;;;19.10;99.90;;;;;;4352361;28;656440;-66
2022/07/30 14:02:23;;;;;;;32.00;22.50;;;19.10;99.90;;;;;;4367077;28;657328;-66
2022/07/30 14:05:10;;;;;;;37.63;24.07;;;19.20;99.90;;;;;;4354372;28;656378;-67
2022/07/30 14:07:57;;;;;;;33.07;23.17;;;19.40;99.90;;;;;;4357806;28;657215;-67
2022/07/30 14:10:44;;;;;;;28.57;21.43;;;19.40;99.90;;;;;;4365354;28;656362;-67
2022/07/30 14:13:33;;;;;;;34.83;22.47;;;19.40;99.90;;;;;;4334193;28;656861;-67
2022/07/30 14:16:20;;;;;;;30.27;22.23;;;19.30;99.90;;;;;;4348458;28;656629;-68
2022/07/30 14:19:07;;;;;;;28.70;21.33;;;19.40;99.90;;;;;;4362879;28;658090;-67
2022/07/30 14:21:54;;;;;;;25.80;19.60;;;19.50;99.90;;;;;;4358635;28;657432;-67
2022/07/30 14:24:42;;;;;;;23.53;17.67;;;19.60;99.90;;;;;;4340578;28;657935;-67
2022/07/30 14:27:29;;;;;;;18.57;13.63;;;19.40;99.90;;;;;;4358201;28;656327;-66